Time;durP1;ratioP1;P1;durP2;ratioP2;P2;SDS_P1;SDS_P2;PMS_P1;PMS_P2;Temp;Humidity;BMP_temperature;BMP_pressure;BME280_temperature;BME280_humidity;BME280_pressure;Samples;Min_cycle;Max_cycle;Signal;HPM_P1;HPM_P2
2022/04/01 00:01:58;;;;;;;1.00;0.70;;;1.40;85.60;;;;;;5094546;28;20108;-74
2022/04/01 00:04:24;;;;;;;1.00;0.70;;;1.40;85.60;;;;;;5097185;28;20071;-74
2022/04/01 00:06:49;;;;;;;0.80;0.63;;;1.40;85.60;;;;;;5115182;28;20481;-73
2022/04/01 00:09:15;;;;;;;0.70;0.63;;;1.40;85.60;;;;;;5096836;28;20081;-73
2022/04/01 00:11:41;;;;;;;0.82;0.60;;;1.30;85.70;;;;;;5096835;28;20564;-74
2022/04/01 00:14:08;;;;;;;0.50;0.50;;;1.30;85.70;;;;;;5115520;28;20044;-75
2022/04/01 00:16:34;;;;;;;1.08;0.70;;;1.30;85.70;;;;;;5078484;28;20040;-73
2022/04/01 00:19:00;;;;;;;0.90;0.70;;;1.40;85.80;;;;;;5114833;28;20038;-73
2022/04/01 00:21:25;;;;;;;0.88;0.60;;;1.30;85.70;;;;;;5096364;28;20435;-73
2022/04/01 00:23:51;;;;;;;1.25;0.68;;;1.30;85.70;;;;;;5114820;28;20401;-73
2022/04/01 00:26:16;;;;;;;0.90;0.80;;;1.20;85.70;;;;;;5094916;28;20093;-74
2022/04/01 00:28:42;;;;;;;0.50;0.50;;;1.40;85.80;;;;;;5115108;28;20039;-72
2022/04/01 00:31:09;;;;;;;1.25;0.70;;;1.30;85.70;;;;;;5115193;28;20500;-72
2022/04/01 00:33:35;;;;;;;0.90;0.70;;;1.20;85.60;;;;;;5115012;28;20032;-72
2022/04/01 00:36:01;;;;;;;0.63;0.50;;;1.20;85.70;;;;;;5114742;28;20040;-71
2022/04/01 00:38:26;;;;;;;1.05;0.70;;;1.30;85.70;;;;;;5114878;28;20626;-71
2022/04/01 00:40:52;;;;;;;0.93;0.70;;;1.30;85.70;;;;;;5096353;28;20092;-71
2022/04/01 00:43:27;;;;;;;0.50;0.50;;;1.30;85.60;;;;;;5114739;28;20067;-71
2022/04/01 00:45:54;;;;;;;1.45;0.80;;;1.30;85.60;;;;;;5095357;28;20445;-71
2022/04/01 00:48:19;;;;;;;0.70;0.60;;;1.30;85.60;;;;;;5114361;28;20118;-73
2022/04/01 00:50:45;;;;;;;0.80;0.70;;;1.30;85.50;;;;;;5096623;28;20067;-72
2022/04/01 00:53:11;;;;;;;0.60;0.50;;;1.30;85.60;;;;;;5114931;28;20043;-71
2022/04/01 00:55:37;;;;;;;0.95;0.60;;;1.30;85.50;;;;;;5114623;28;20043;-71
2022/04/01 00:58:05;;;;;;;1.15;0.70;;;1.30;85.60;;;;;;5114777;28;20044;-72
2022/04/01 01:00:31;;;;;;;1.63;0.80;;;1.30;85.60;;;;;;5114418;28;20032;-72
2022/04/01 01:02:58;;;;;;;0.93;0.68;;;1.30;85.60;;;;;;5096467;28;20401;-72
2022/04/01 01:05:24;;;;;;;0.40;0.40;;;1.30;85.70;;;;;;5114151;28;20043;-71
2022/04/01 01:07:50;;;;;;;1.33;0.80;;;1.30;85.80;;;;;;5114565;28;20035;-72
2022/04/01 01:10:18;;;;;;;0.88;0.50;;;1.20;85.70;;;;;;5114345;28;20048;-71
2022/04/01 01:12:45;;;;;;;0.52;0.52;;;1.30;85.80;;;;;;5113848;28;20111;-71
2022/04/01 01:15:13;;;;;;;0.45;0.45;;;1.20;85.80;;;;;;5113947;28;20040;-71
2022/04/01 01:17:40;;;;;;;0.57;0.57;;;1.20;85.80;;;;;;5095980;28;20042;-70
2022/04/01 01:20:12;;;;;;;1.05;0.70;;;1.20;85.80;;;;;;5114158;28;20039;-71
2022/04/01 01:22:41;;;;;;;1.00;0.80;;;1.20;85.80;;;;;;5110473;28;20062;-70
2022/04/01 01:25:08;;;;;;;1.35;0.85;;;1.20;85.90;;;;;;5114107;28;20481;-70
2022/04/01 01:27:34;;;;;;;0.50;0.40;;;1.10;85.90;;;;;;5113706;28;20504;-71
2022/04/01 01:30:02;;;;;;;0.65;0.60;;;1.10;85.90;;;;;;5113949;28;20035;-70
2022/04/01 01:32:29;;;;;;;1.00;0.63;;;1.10;85.90;;;;;;5113792;28;20047;-71
2022/04/01 01:34:56;;;;;;;0.85;0.60;;;1.10;85.90;;;;;;5114191;28;20435;-71
2022/04/01 01:37:22;;;;;;;0.68;0.68;;;1.00;85.90;;;;;;5114120;28;20043;-71
2022/04/01 01:39:48;;;;;;;0.88;0.70;;;1.10;86.00;;;;;;5113928;28;20058;-71
2022/04/01 01:42:15;;;;;;;0.95;0.77;;;1.10;86.00;;;;;;5113417;28;20036;-70
2022/04/01 01:44:44;;;;;;;0.80;0.70;;;1.10;86.10;;;;;;5114085;28;20114;-70
2022/04/01 01:47:09;;;;;;;1.25;1.02;;;1.00;86.60;;;;;;5113499;28;20392;-71
2022/04/01 01:49:35;;;;;;;0.80;0.80;;;1.00;86.10;;;;;;5114083;28;20039;-70
2022/04/01 01:54:43;;;;;;;0.90;0.52;;;1.00;86.10;;;;;;5113452;28;20432;-70
2022/04/01 01:57:10;;;;;;;1.65;0.90;;;1.00;86.10;;;;;;5113347;28;20446;-71
2022/04/01 01:59:36;;;;;;;1.05;0.80;;;1.00;86.10;;;;;;5113845;28;20085;-71
2022/04/01 02:02:05;;;;;;;1.17;0.70;;;0.90;86.10;;;;;;5113060;28;20039;-72
2022/04/01 02:04:32;;;;;;;1.25;0.80;;;1.00;86.20;;;;;;5113738;28;20068;-72
2022/04/01 02:06:58;;;;;;;1.40;0.85;;;0.90;86.20;;;;;;5113493;28;20485;-71
2022/04/01 02:09:24;;;;;;;1.15;0.80;;;0.90;86.20;;;;;;5095470;28;20454;-72
2022/04/01 02:11:51;;;;;;;2.38;0.98;;;1.00;86.20;;;;;;5113028;28;20040;-71
2022/04/01 02:14:17;;;;;;;1.00;0.85;;;0.90;86.20;;;;;;5113033;28;20561;-73
2022/04/01 02:16:43;;;;;;;0.75;0.70;;;0.90;86.20;;;;;;5113006;28;20078;-72
2022/04/01 02:19:11;;;;;;;0.98;0.70;;;0.90;86.30;;;;;;5113033;28;20040;-72
2022/04/01 02:21:36;;;;;;;0.98;0.70;;;0.90;86.30;;;;;;5113166;28;20043;-73
2022/04/01 02:24:06;;;;;;;0.60;0.60;;;0.90;87.00;;;;;;5112825;28;20381;-73
2022/04/01 02:26:32;;;;;;;1.05;0.65;;;1.00;86.40;;;;;;5112799;28;20036;-72
2022/04/01 02:29:00;;;;;;;0.82;0.50;;;0.90;86.40;;;;;;5092736;28;20050;-72
2022/04/01 02:31:26;;;;;;;1.30;0.70;;;0.90;86.40;;;;;;5112663;28;20035;-72
2022/04/01 02:33:51;;;;;;;0.95;0.70;;;0.90;86.40;;;;;;5112854;28;20069;-73
2022/04/01 02:36:17;;;;;;;0.77;0.60;;;0.90;86.40;;;;;;5094922;28;20442;-73
2022/04/01 02:38:43;;;;;;;0.52;0.50;;;0.90;86.50;;;;;;5112680;28;20040;-73
2022/04/01 02:41:11;;;;;;;0.93;0.60;;;0.80;86.40;;;;;;5112558;28;20052;-72
2022/04/01 02:43:37;;;;;;;0.70;0.55;;;0.90;86.50;;;;;;5113034;28;20063;-72
2022/04/01 02:46:05;;;;;;;1.20;0.85;;;0.90;86.50;;;;;;5112483;28;20067;-72
2022/04/01 02:48:31;;;;;;;1.38;0.80;;;0.90;86.50;;;;;;5092396;28;20117;-73
2022/04/01 02:50:57;;;;;;;0.77;0.60;;;0.80;86.50;;;;;;5112633;28;20039;-73
2022/04/01 02:53:23;;;;;;;0.70;0.52;;;0.80;86.50;;;;;;5112524;28;20039;-73
2022/04/01 02:55:50;;;;;;;0.65;0.65;;;0.80;86.50;;;;;;5112907;28;20043;-73
2022/04/01 02:58:16;;;;;;;0.70;0.65;;;0.80;86.50;;;;;;5112456;28;20057;-73
2022/04/01 03:00:41;;;;;;;0.70;0.60;;;0.90;86.50;;;;;;5112263;28;20044;-73
2022/04/01 03:03:08;;;;;;;0.68;0.60;;;0.90;86.60;;;;;;5112691;28;20043;-73
2022/04/01 03:05:40;;;;;;;0.65;0.55;;;0.90;86.50;;;;;;5092484;28;20040;-74
2022/04/01 03:08:07;;;;;;;1.15;0.63;;;0.90;86.50;;;;;;5112504;28;20036;-74
2022/04/01 03:10:35;;;;;;;0.70;0.70;;;0.90;86.60;;;;;;5112742;28;20467;-74
2022/04/01 03:13:01;;;;;;;1.02;0.60;;;0.90;86.50;;;;;;5112690;28;20043;-74
2022/04/01 03:15:28;;;;;;;0.60;0.60;;;0.80;86.50;;;;;;5112173;28;20043;-74
2022/04/01 03:17:56;;;;;;;0.57;0.50;;;0.80;86.50;;;;;;5112494;28;20114;-74
2022/04/01 03:20:23;;;;;;;0.85;0.50;;;0.90;86.60;;;;;;5112100;28;20413;-74
2022/04/01 03:22:50;;;;;;;0.95;0.60;;;0.80;86.50;;;;;;5112165;28;20044;-73
2022/04/01 03:25:18;;;;;;;0.95;0.57;;;0.90;86.50;;;;;;5111830;28;20036;-73
2022/04/01 03:27:45;;;;;;;0.77;0.60;;;0.90;86.50;;;;;;5111837;28;20043;-73
2022/04/01 03:30:13;;;;;;;0.60;0.60;;;0.80;86.50;;;;;;5111900;28;20445;-73
2022/04/01 03:32:39;;;;;;;0.77;0.50;;;0.90;86.50;;;;;;5111804;28;20078;-74
2022/04/01 03:35:09;;;;;;;0.75;0.52;;;0.80;86.50;;;;;;5077016;28;20465;-74
2022/04/01 03:37:35;;;;;;;0.75;0.60;;;0.90;86.60;;;;;;5111745;28;20074;-73
2022/04/01 03:40:02;;;;;;;0.73;0.50;;;0.90;86.50;;;;;;5097256;28;20044;-74
2022/04/01 03:42:31;;;;;;;1.27;0.77;;;0.90;86.60;;;;;;5115319;28;20039;-73
2022/04/01 03:45:03;;;;;;;0.63;0.63;;;0.90;86.60;;;;;;5115577;28;20094;-73
2022/04/01 03:47:41;;;;;;;1.08;0.75;;;0.90;86.60;;;;;;5115051;28;20449;-73
2022/04/01 03:50:10;;;;;;;0.60;0.50;;;0.80;86.60;;;;;;5115811;28;20037;-73
2022/04/01 03:52:37;;;;;;;1.00;0.70;;;0.80;86.60;;;;;;5115939;28;20044;-72
2022/04/01 03:55:06;;;;;;;1.08;0.65;;;0.90;86.60;;;;;;5115167;28;20047;-74
2022/04/01 03:57:39;;;;;;;0.80;0.70;;;0.80;86.60;;;;;;5115626;28;20413;-73
2022/04/01 04:00:08;;;;;;;0.63;0.45;;;0.80;86.60;;;;;;5115207;28;20038;-73
2022/04/01 04:02:35;;;;;;;0.50;0.50;;;0.80;86.70;;;;;;5096765;28;20438;-73
2022/04/01 04:05:02;;;;;;;1.08;0.75;;;0.80;86.70;;;;;;5115505;28;20027;-74
2022/04/01 04:07:30;;;;;;;1.13;0.70;;;0.70;86.60;;;;;;5115762;28;20059;-74
2022/04/01 04:09:57;;;;;;;1.48;0.90;;;0.80;86.70;;;;;;5115377;28;20043;-73
2022/04/01 04:12:25;;;;;;;1.00;0.70;;;0.80;86.70;;;;;;5115423;28;20496;-73
2022/04/01 04:14:53;;;;;;;1.35;0.95;;;0.80;86.70;;;;;;5115473;28;20111;-72
2022/04/01 04:17:33;;;;;;;1.55;1.10;;;0.80;86.70;;;;;;5115602;28;20084;-72
2022/04/01 04:20:23;;;;;;;0.73;0.68;;;0.80;86.70;;;;;;5115317;28;20032;-73
2022/04/01 04:23:15;;;;;;;1.30;0.73;;;0.70;86.70;;;;;;5098669;28;20032;-72
2022/04/01 04:25:53;;;;;;;1.00;0.75;;;0.70;86.70;;;;;;5115645;28;20063;-73
2022/04/01 04:28:25;;;;;;;0.82;0.75;;;0.70;86.70;;;;;;5115194;28;20039;-73
2022/04/01 04:30:55;;;;;;;1.25;0.90;;;0.70;86.70;;;;;;5096596;28;20486;-73
2022/04/01 04:33:27;;;;;;;1.08;0.73;;;0.70;86.70;;;;;;5115240;28;20050;-73
2022/04/01 04:35:53;;;;;;;1.00;0.63;;;0.70;86.70;;;;;;5115332;28;20048;-73
2022/04/01 04:38:21;;;;;;;1.48;0.90;;;0.60;86.60;;;;;;5097220;28;20051;-73
2022/04/01 04:40:47;;;;;;;0.88;0.65;;;0.70;86.70;;;;;;5114849;28;20069;-74
2022/04/01 04:43:18;;;;;;;0.77;0.68;;;0.80;86.70;;;;;;5115016;28;20028;-73
2022/04/01 04:45:48;;;;;;;1.25;0.80;;;0.70;86.70;;;;;;5115295;28;20044;-72
2022/04/01 04:48:13;;;;;;;0.88;0.70;;;0.70;86.60;;;;;;5114516;28;20036;-74
2022/04/01 04:50:45;;;;;;;0.70;0.70;;;0.60;86.60;;;;;;5114812;28;20595;-73
2022/04/01 04:53:13;;;;;;;0.80;0.70;;;0.70;86.60;;;;;;5097787;28;20092;-73
2022/04/01 04:55:40;;;;;;;0.90;0.50;;;0.80;86.70;;;;;;5096589;28;20081;-73
2022/04/01 04:58:09;;;;;;;1.45;0.80;;;0.80;86.60;;;;;;5114725;28;20108;-73
2022/04/01 05:00:36;;;;;;;0.85;0.68;;;0.70;86.50;;;;;;5096077;28;20035;-73
2022/04/01 05:03:29;;;;;;;1.02;0.63;;;0.70;86.50;;;;;;5096128;28;20042;-73
2022/04/01 05:05:56;;;;;;;0.80;0.60;;;0.70;86.50;;;;;;5114690;28;20118;-72
2022/04/01 05:08:49;;;;;;;0.82;0.80;;;0.80;86.50;;;;;;5114651;28;20130;-73
2022/04/01 05:11:29;;;;;;;0.95;0.70;;;0.70;86.50;;;;;;5114575;28;20044;-74
2022/04/01 05:14:11;;;;;;;0.73;0.50;;;0.70;86.50;;;;;;5096123;28;20051;-73
2022/04/01 05:16:53;;;;;;;1.23;0.73;;;0.70;86.40;;;;;;5114320;28;20047;-73
2022/04/01 05:19:26;;;;;;;0.93;0.70;;;0.70;86.50;;;;;;5096368;28;20036;-72
2022/04/01 05:22:09;;;;;;;2.25;0.90;;;0.70;86.40;;;;;;5095239;28;20094;-74
2022/04/01 05:24:39;;;;;;;1.05;0.75;;;0.70;86.40;;;;;;5114693;28;20040;-73
2022/04/01 05:27:10;;;;;;;0.60;0.60;;;0.60;86.40;;;;;;5114350;28;20039;-72
2022/04/01 05:29:42;;;;;;;0.77;0.52;;;0.70;86.50;;;;;;5114393;28;20101;-73
2022/04/01 05:32:11;;;;;;;0.77;0.50;;;0.70;86.50;;;;;;5114402;28;20038;-73
2022/04/01 05:34:43;;;;;;;0.90;0.57;;;0.80;86.50;;;;;;5095731;28;20096;-73
2022/04/01 05:37:09;;;;;;;0.60;0.50;;;0.70;86.40;;;;;;5096244;28;20050;-72
2022/04/01 05:39:37;;;;;;;0.70;0.50;;;0.70;86.40;;;;;;5114084;28;20089;-72
2022/04/01 05:42:06;;;;;;;0.98;0.80;;;0.70;86.40;;;;;;5113841;28;20035;-71
2022/04/01 05:44:33;;;;;;;1.23;0.70;;;0.70;86.40;;;;;;5114243;28;20036;-72
2022/04/01 05:47:00;;;;;;;1.23;0.77;;;0.70;86.40;;;;;;5113871;28;20517;-71
2022/04/01 05:49:28;;;;;;;1.20;0.68;;;0.70;86.40;;;;;;5114212;28;20043;-72
2022/04/01 05:51:54;;;;;;;0.60;0.57;;;0.70;86.40;;;;;;5114073;28;20066;-72
2022/04/01 05:54:22;;;;;;;0.70;0.70;;;0.70;86.50;;;;;;5113823;28;20048;-71
2022/04/01 05:56:49;;;;;;;1.02;0.70;;;0.70;86.30;;;;;;5095510;28;20470;-71
2022/04/01 05:59:17;;;;;;;1.77;0.70;;;0.70;86.40;;;;;;5114295;28;20074;-72
2022/04/01 06:02:08;;;;;;;0.57;0.52;;;0.70;86.30;;;;;;5094881;28;20036;-72
2022/04/01 06:04:54;;;;;;;0.95;0.65;;;0.70;86.30;;;;;;5113364;28;20122;-71
2022/04/01 06:07:35;;;;;;;1.13;0.80;;;0.70;86.30;;;;;;5113185;28;20035;-72
2022/04/01 06:10:05;;;;;;;0.98;0.80;;;0.80;86.30;;;;;;5113303;28;20044;-71
2022/04/01 06:13:05;;;;;;;1.98;0.95;;;0.70;86.20;;;;;;5113338;28;20385;-70
2022/04/01 06:15:55;;;;;;;1.88;1.00;;;0.70;86.20;;;;;;5113133;28;20420;-71
2022/04/01 06:18:45;;;;;;;1.80;0.93;;;0.80;86.20;;;;;;5112849;28;20044;-70
2022/04/01 06:21:15;;;;;;;1.73;1.10;;;0.80;86.20;;;;;;5112594;28;20031;-71
2022/04/01 06:24:08;;;;;;;1.23;0.80;;;0.80;86.10;;;;;;5094892;28;20045;-71
2022/04/01 06:26:39;;;;;;;2.25;0.90;;;0.80;86.10;;;;;;5094210;28;20068;-71
2022/04/01 06:29:20;;;;;;;2.65;0.85;;;0.80;86.10;;;;;;5112937;28;20036;-70
2022/04/01 06:31:56;;;;;;;1.58;0.95;;;0.90;86.20;;;;;;5112956;28;20145;-70
2022/04/01 06:34:26;;;;;;;1.30;0.68;;;0.80;86.00;;;;;;5096248;28;20177;-70
2022/04/01 06:36:59;;;;;;;0.80;0.63;;;0.80;86.00;;;;;;5095249;28;20057;-71
2022/04/01 06:39:36;;;;;;;0.73;0.60;;;0.90;86.00;;;;;;5113217;28;20081;-69
2022/04/01 06:42:04;;;;;;;1.15;0.60;;;0.90;86.00;;;;;;5113149;28;20031;-70
2022/04/01 06:44:29;;;;;;;0.77;0.65;;;0.90;86.00;;;;;;5113297;28;20477;-70
2022/04/01 06:46:55;;;;;;;0.57;0.43;;;0.90;85.90;;;;;;5113201;28;20035;-70
2022/04/01 06:49:25;;;;;;;0.88;0.60;;;0.90;85.90;;;;;;5113348;28;20477;-70
2022/04/01 06:51:51;;;;;;;0.75;0.40;;;0.90;86.00;;;;;;5113110;28;20051;-70
2022/04/01 06:54:17;;;;;;;0.73;0.55;;;0.90;86.50;;;;;;5113473;28;20192;-70
2022/04/01 06:56:43;;;;;;;1.55;0.70;;;1.00;85.90;;;;;;5112827;28;20035;-70
2022/04/01 06:59:09;;;;;;;1.33;0.65;;;1.00;86.00;;;;;;5112744;28;20108;-71
2022/04/01 07:01:35;;;;;;;1.70;0.88;;;1.00;85.90;;;;;;5112954;28;20477;-72
2022/04/01 07:04:01;;;;;;;1.00;0.80;;;1.00;85.90;;;;;;5093158;28;20062;-72
2022/04/01 07:06:28;;;;;;;0.93;0.63;;;1.00;85.90;;;;;;5112569;28;20040;-71
2022/04/01 07:08:54;;;;;;;0.55;0.45;;;1.00;86.00;;;;;;5112624;28;20036;-72
2022/04/01 07:11:21;;;;;;;0.85;0.50;;;1.10;86.00;;;;;;5092973;28;20134;-71
2022/04/01 07:13:47;;;;;;;0.30;0.30;;;1.00;85.90;;;;;;5093012;28;20097;-70
2022/04/01 07:16:14;;;;;;;1.42;0.75;;;1.00;85.80;;;;;;5112551;28;20035;-70
2022/04/01 07:18:40;;;;;;;1.67;0.85;;;1.10;85.90;;;;;;5112439;28;20048;-72
2022/04/01 07:21:08;;;;;;;0.85;0.68;;;1.20;85.90;;;;;;5112401;28;20500;-73
2022/04/01 07:23:33;;;;;;;1.20;0.70;;;1.10;85.90;;;;;;5094188;28;20433;-73
2022/04/01 07:25:59;;;;;;;0.93;0.80;;;1.10;85.80;;;;;;5112387;28;20120;-72
2022/04/01 07:28:25;;;;;;;0.63;0.50;;;1.20;85.90;;;;;;5112717;28;20036;-71
2022/04/01 07:30:51;;;;;;;0.40;0.40;;;1.20;85.80;;;;;;5077406;28;20512;-73
2022/04/01 07:33:17;;;;;;;0.85;0.70;;;1.20;85.80;;;;;;5094694;28;20051;-71
2022/04/01 07:35:47;;;;;;;1.83;0.90;;;1.20;85.80;;;;;;5094022;28;20562;-71
2022/04/01 07:38:14;;;;;;;1.20;0.57;;;1.20;85.80;;;;;;5112734;28;20040;-71
2022/04/01 07:40:39;;;;;;;0.88;0.60;;;1.20;85.80;;;;;;5112367;28;20050;-72
2022/04/01 07:43:05;;;;;;;1.05;0.52;;;1.20;85.80;;;;;;5112665;28;20073;-70
2022/04/01 07:45:34;;;;;;;0.80;0.63;;;1.20;85.80;;;;;;5112210;28;20063;-71
2022/04/01 07:48:01;;;;;;;1.30;0.70;;;1.20;85.80;;;;;;5112892;28;20050;-70
2022/04/01 07:50:27;;;;;;;0.85;0.52;;;1.30;85.80;;;;;;5112529;28;20100;-71
2022/04/01 07:52:54;;;;;;;0.60;0.50;;;1.30;85.70;;;;;;5112601;28;20461;-71
2022/04/01 07:55:20;;;;;;;1.08;0.70;;;1.30;85.70;;;;;;5077145;28;20089;-69
2022/04/01 07:57:49;;;;;;;0.30;0.20;;;1.30;85.70;;;;;;5112114;28;20088;-71
2022/04/01 08:00:16;;;;;;;0.55;0.43;;;1.30;85.60;;;;;;5112821;28;20384;-70
2022/04/01 08:02:43;;;;;;;0.75;0.47;;;1.40;85.60;;;;;;5094320;28;20048;-71
2022/04/01 08:05:09;;;;;;;0.30;0.30;;;1.50;85.60;;;;;;5112481;28;20043;-71
2022/04/01 08:07:35;;;;;;;0.60;0.40;;;1.50;85.50;;;;;;5092227;28;20096;-72
2022/04/01 08:10:03;;;;;;;0.80;0.50;;;1.50;85.40;;;;;;5094417;28;20047;-71
2022/04/01 08:12:33;;;;;;;0.50;0.47;;;1.60;85.40;;;;;;5111851;28;20054;-70
2022/04/01 08:14:59;;;;;;;0.70;0.30;;;1.70;85.30;;;;;;5094364;28;20047;-71
2022/04/01 08:17:25;;;;;;;0.80;0.40;;;1.70;85.20;;;;;;5111711;28;20491;-71
2022/04/01 08:19:51;;;;;;;0.75;0.40;;;1.70;85.10;;;;;;5112020;28;20039;-71
2022/04/01 08:22:18;;;;;;;0.55;0.50;;;1.70;85.00;;;;;;5111600;28;20136;-72
2022/04/01 08:24:44;;;;;;;0.43;0.30;;;1.80;84.90;;;;;;5115351;28;20035;-71
2022/04/01 08:27:11;;;;;;;0.57;0.40;;;1.80;84.70;;;;;;5096992;28;20405;-72
2022/04/01 08:29:38;;;;;;;0.65;0.50;;;1.80;84.70;;;;;;5097030;28;20052;-72
2022/04/01 08:32:06;;;;;;;0.50;0.45;;;1.80;84.70;;;;;;5080300;28;20047;-71
2022/04/01 08:34:32;;;;;;;0.30;0.30;;;1.80;85.30;;;;;;5114886;28;20038;-72
2022/04/01 08:36:58;;;;;;;0.77;0.40;;;1.80;84.60;;;;;;5063028;28;20427;-73
2022/04/01 08:39:24;;;;;;;1.27;0.40;;;1.70;84.60;;;;;;5114937;28;20043;-73
2022/04/01 08:41:50;;;;;;;0.40;0.30;;;1.80;84.60;;;;;;5079906;28;20126;-72
2022/04/01 08:44:16;;;;;;;0.77;0.40;;;1.90;84.70;;;;;;5114930;28;20047;-71
2022/04/01 08:46:42;;;;;;;0.30;0.30;;;2.00;84.60;;;;;;5095173;28;20096;-72
2022/04/01 08:49:08;;;;;;;0.85;0.40;;;2.00;84.50;;;;;;5114958;28;20130;-72
2022/04/01 08:51:34;;;;;;;0.60;0.38;;;2.00;84.40;;;;;;5114762;28;20031;-73
2022/04/01 08:54:00;;;;;;;1.02;0.40;;;2.10;84.40;;;;;;5114797;28;20507;-72
2022/04/01 08:56:26;;;;;;;0.32;0.32;;;2.10;84.20;;;;;;5114562;28;20046;-72
2022/04/01 08:58:52;;;;;;;0.75;0.50;;;2.20;84.20;;;;;;5114758;28;20043;-74
2022/04/01 09:01:18;;;;;;;0.55;0.30;;;2.20;84.00;;;;;;5114769;28;20073;-71
2022/04/01 09:03:44;;;;;;;0.17;0.17;;;2.30;84.00;;;;;;5114461;28;20035;-72
2022/04/01 09:06:10;;;;;;;0.30;0.30;;;2.30;83.90;;;;;;5114410;28;20114;-72
2022/04/01 09:08:41;;;;;;;0.63;0.30;;;2.40;83.70;;;;;;5114454;28;20067;-72
2022/04/01 09:11:10;;;;;;;0.32;0.28;;;2.40;83.50;;;;;;5114676;28;20400;-72
2022/04/01 09:13:49;;;;;;;0.38;0.30;;;2.60;83.40;;;;;;5079198;28;20039;-72
2022/04/01 09:16:28;;;;;;;0.28;0.28;;;2.60;83.20;;;;;;5096115;28;20074;-71
2022/04/01 09:18:56;;;;;;;1.30;0.60;;;2.60;83.00;;;;;;5114312;28;20066;-72
2022/04/01 09:21:28;;;;;;;0.93;0.40;;;2.60;83.00;;;;;;5096406;28;20027;-73
2022/04/01 09:23:53;;;;;;;;;;;2.80;83.00;;;;;;5114819;28;20036;-73
2022/04/01 09:26:22;;;;;;;0.68;0.40;;;2.90;82.80;;;;;;5114138;28;20277;-73
2022/04/01 09:28:52;;;;;;;0.82;0.45;;;2.90;82.60;;;;;;5114487;28;20043;-73
2022/04/01 09:31:19;;;;;;;0.20;0.20;;;3.10;82.50;;;;;;5114104;28;20086;-73
2022/04/01 09:33:47;;;;;;;0.50;0.40;;;3.20;82.20;;;;;;5114399;28;20048;-73
2022/04/01 09:36:17;;;;;;;0.88;0.50;;;3.20;81.90;;;;;;5095899;28;20122;-72
2022/04/01 09:39:06;;;;;;;0.30;0.30;;;3.40;81.90;;;;;;5113788;28;20043;-74
2022/04/01 09:41:49;;;;;;;0.50;0.50;;;3.40;81.70;;;;;;5113906;28;20067;-72
2022/04/01 09:44:20;;;;;;;1.55;0.70;;;3.40;81.60;;;;;;5094121;28;20032;-72
2022/04/01 09:46:52;;;;;;;0.82;0.60;;;3.50;81.60;;;;;;5113905;28;20043;-72
2022/04/01 09:49:30;;;;;;;1.50;0.70;;;3.40;81.40;;;;;;5113775;28;20042;-73
2022/04/01 09:51:57;;;;;;;0.75;0.60;;;3.40;81.50;;;;;;5113746;28;20051;-73
2022/04/01 09:54:24;;;;;;;0.60;0.60;;;3.50;81.70;;;;;;5113843;28;20392;-72
2022/04/01 09:56:58;;;;;;;2.03;0.80;;;3.50;81.70;;;;;;5113867;28;20040;-73
2022/04/01 09:59:31;;;;;;;1.17;0.65;;;3.60;81.50;;;;;;5113623;28;20500;-73
2022/04/01 10:01:58;;;;;;;1.02;0.90;;;3.60;82.00;;;;;;5095208;28;20067;-73
2022/04/01 10:04:23;;;;;;;1.77;1.00;;;3.50;81.40;;;;;;5113604;28;20123;-73
2022/04/01 10:06:49;;;;;;;1.75;0.90;;;3.60;81.70;;;;;;5095354;28;20457;-73
2022/04/01 10:09:18;;;;;;;1.05;0.80;;;3.50;81.70;;;;;;5113722;28;20130;-73
2022/04/01 10:11:43;;;;;;;1.85;1.00;;;3.50;81.70;;;;;;5113372;28;20050;-71
2022/04/01 10:14:13;;;;;;;0.93;0.65;;;3.50;81.70;;;;;;5095081;28;20043;-71
2022/04/01 10:16:44;;;;;;;1.95;1.00;;;3.50;81.60;;;;;;5095282;28;20075;-72
2022/04/01 10:19:13;;;;;;;1.47;0.90;;;3.60;81.50;;;;;;5113491;28;20126;-72
2022/04/01 10:21:43;;;;;;;2.63;0.82;;;3.70;81.40;;;;;;5094345;28;20426;-72
2022/04/01 10:24:34;;;;;;;1.15;0.68;;;3.70;81.40;;;;;;5113173;28;20043;-72
2022/04/01 10:27:33;;;;;;;1.13;0.70;;;3.70;81.20;;;;;;5097131;28;20544;-71
2022/04/01 10:29:59;;;;;;;1.27;0.80;;;3.70;81.10;;;;;;5097720;28;20043;-71
2022/04/01 10:32:29;;;;;;;2.63;1.20;;;3.80;81.10;;;;;;5112812;28;20097;-71
2022/04/01 10:34:58;;;;;;;1.30;1.02;;;3.80;80.90;;;;;;5094390;28;20075;-71
2022/04/01 10:37:25;;;;;;;1.60;1.10;;;3.80;80.70;;;;;;5112935;28;20032;-71
2022/04/01 10:39:54;;;;;;;1.75;1.13;;;3.80;80.80;;;;;;5113418;28;20036;-71
2022/04/01 10:42:31;;;;;;;1.05;0.80;;;3.90;80.90;;;;;;5113425;28;20039;-70
2022/04/01 10:45:14;;;;;;;1.10;0.88;;;3.80;80.80;;;;;;5111504;28;20040;-71
2022/04/01 10:53:46;;;;;;;1.25;0.75;;;3.80;80.70;;;;;;5109053;28;20089;-72
2022/04/01 10:56:24;;;;;;;;;;;3.80;80.90;;;;;;5095062;28;20427;-72
2022/04/01 10:59:08;;;;;;;1.58;0.88;;;3.70;80.90;;;;;;5090848;28;20259;-70
2022/04/01 11:01:36;;;;;;;1.13;0.93;;;3.70;80.90;;;;;;5094428;28;20396;-72
2022/04/01 11:04:23;;;;;;;1.80;1.00;;;3.70;81.00;;;;;;5112959;28;20382;-70
2022/04/01 11:06:58;;;;;;;1.38;1.10;;;3.80;80.90;;;;;;5098351;28;20092;-71
2022/04/01 11:09:38;;;;;;;1.30;0.95;;;3.90;80.80;;;;;;5112795;28;20044;-72
2022/04/01 11:12:22;;;;;;;1.17;0.75;;;4.00;80.50;;;;;;5094551;28;20426;-72
2022/04/01 11:15:09;;;;;;;0.77;0.77;;;4.20;80.30;;;;;;5112752;28;20047;-72
2022/04/01 11:17:59;;;;;;;1.33;0.85;;;4.20;80.10;;;;;;5097786;28;20043;-72
2022/04/01 11:20:27;;;;;;;1.55;1.00;;;4.30;79.80;;;;;;5097645;28;20039;-71
2022/04/01 11:23:04;;;;;;;2.03;1.13;;;4.40;79.60;;;;;;5113035;28;20477;-72
2022/04/01 11:25:50;;;;;;;1.13;0.90;;;4.40;79.50;;;;;;5112536;28;20031;-71
2022/04/01 11:28:17;;;;;;;2.25;1.30;;;4.40;79.40;;;;;;5112543;28;20040;-72
2022/04/01 11:30:45;;;;;;;2.25;1.35;;;4.40;79.30;;;;;;5112856;28;20512;-72
2022/04/01 11:33:16;;;;;;;1.80;1.02;;;4.30;79.30;;;;;;5093116;28;20048;-72
2022/04/01 11:35:44;;;;;;;1.92;1.33;;;4.20;79.40;;;;;;5092908;28;20489;-71
2022/04/01 11:38:14;;;;;;;1.23;1.00;;;4.20;79.50;;;;;;5112774;28;20032;-71
2022/04/01 11:40:40;;;;;;;1.98;1.23;;;4.20;79.60;;;;;;5112927;28;20047;-71
2022/04/01 11:43:10;;;;;;;1.83;1.15;;;4.20;79.70;;;;;;5112293;28;20036;-71
2022/04/01 11:45:46;;;;;;;1.88;1.10;;;4.10;79.60;;;;;;5112167;28;20046;-71
2022/04/01 11:48:18;;;;;;;1.95;1.15;;;4.10;79.70;;;;;;5112818;28;20086;-71
2022/04/01 11:50:44;;;;;;;;;;;4.00;79.90;;;;;;5092947;28;20040;-72
2022/04/01 11:53:19;;;;;;;1.60;1.20;;;4.10;80.10;;;;;;5112136;28;19919;-72
2022/04/01 11:55:45;;;;;;;2.05;1.20;;;4.10;80.00;;;;;;5093929;28;20136;-72
2022/04/01 11:58:11;;;;;;;1.67;1.17;;;4.10;79.90;;;;;;5096667;28;20043;-71
2022/04/01 12:00:37;;;;;;;1.52;1.00;;;4.10;79.80;;;;;;5116265;28;20057;-71
2022/04/01 12:03:04;;;;;;;1.35;0.98;;;4.20;79.70;;;;;;5115569;28;20493;-71
2022/04/01 12:05:32;;;;;;;2.30;1.27;;;4.30;79.70;;;;;;5115682;28;20071;-72
2022/04/01 12:10:54;;;;;;;1.40;0.95;;;4.40;79.30;;;;;;5115656;28;20396;-71
2022/04/01 12:13:21;;;;;;;1.33;0.95;;;4.60;79.20;;;;;;5115659;28;20039;-72
2022/04/01 12:15:48;;;;;;;1.35;0.93;;;4.80;78.90;;;;;;5115702;28;20032;-71
2022/04/01 12:18:17;;;;;;;1.88;0.98;;;4.90;78.50;;;;;;5097457;28;20050;-71
2022/04/01 12:20:48;;;;;;;1.75;1.02;;;4.90;78.20;;;;;;5115298;28;20427;-72
2022/04/01 12:23:16;;;;;;;0.80;0.70;;;4.90;78.30;;;;;;5115764;28;20065;-72
2022/04/01 12:25:44;;;;;;;1.88;1.20;;;4.80;78.50;;;;;;5115173;28;20078;-71
2022/04/01 12:28:12;;;;;;;1.45;1.10;;;4.80;78.50;;;;;;5115229;28;20040;-71
2022/04/01 12:30:43;;;;;;;1.45;1.10;;;4.60;78.60;;;;;;5115616;28;20048;-71
2022/04/01 12:33:15;;;;;;;1.75;1.25;;;4.50;78.80;;;;;;5115778;28;20058;-71
2022/04/01 12:36:01;;;;;;;2.45;1.30;;;4.50;79.10;;;;;;5115169;28;20047;-71
2022/04/01 12:38:29;;;;;;;1.85;1.08;;;4.50;79.20;;;;;;5114819;28;20042;-71
2022/04/01 12:40:58;;;;;;;1.58;1.10;;;4.50;79.20;;;;;;5115087;28;20047;-70
2022/04/01 12:43:45;;;;;;;2.08;1.02;;;4.60;79.00;;;;;;5115131;28;20128;-72
2022/04/01 12:46:15;;;;;;;1.80;1.20;;;4.60;78.70;;;;;;5114908;28;20142;-72
2022/04/01 12:48:48;;;;;;;2.78;1.10;;;4.60;78.70;;;;;;5115160;28;20054;-70
2022/04/01 12:51:21;;;;;;;2.33;1.20;;;4.60;78.70;;;;;;5115078;28;20040;-71
2022/04/01 12:54:04;;;;;;;1.98;0.93;;;4.60;78.60;;;;;;5115060;28;20055;-70
2022/04/01 12:56:34;;;;;;;2.47;1.30;;;4.70;78.50;;;;;;5115442;28;20047;-70
2022/04/01 12:59:06;;;;;;;1.63;1.10;;;4.70;78.40;;;;;;5114777;28;20481;-71
2022/04/01 13:01:34;;;;;;;2.40;1.20;;;4.70;79.00;;;;;;5115180;28;20040;-71
2022/04/01 13:04:00;;;;;;;2.15;1.30;;;4.80;78.20;;;;;;5115324;28;20096;-71
2022/04/01 13:06:27;;;;;;;2.25;1.27;;;4.80;78.10;;;;;;5114637;28;20122;-71
2022/04/01 13:09:08;;;;;;;1.33;1.10;;;4.90;78.00;;;;;;5095824;28;20043;-71
2022/04/01 13:11:40;;;;;;;1.80;1.05;;;5.00;77.60;;;;;;5114719;28;20039;-71
2022/04/01 13:14:20;;;;;;;2.20;1.30;;;5.10;77.50;;;;;;5114498;28;20127;-70
2022/04/01 13:16:47;;;;;;;1.35;1.15;;;5.20;77.20;;;;;;5096642;28;20082;-70
2022/04/01 13:19:30;;;;;;;2.33;1.33;;;5.30;77.20;;;;;;5114629;28;20063;-71
2022/04/01 13:22:00;;;;;;;3.28;1.40;;;5.40;76.70;;;;;;5112235;28;20035;-71
2022/04/01 13:24:33;;;;;;;1.90;1.40;;;5.50;76.50;;;;;;5114845;28;20042;-71